Time;durP1;ratioP1;P1;durP2;ratioP2;P2;SDS_P1;SDS_P2;PMS_P1;PMS_P2;Temp;Humidity;BMP_temperature;BMP_pressure;BME280_temperature;BME280_humidity;BME280_pressure;Samples;Min_cycle;Max_cycle;Signal;HPM_P1;HPM_P2
2020/12/04 00:01:29;;;;;;;;;;;;;;;;;;5054261;28;19925;-65
2020/12/04 00:03:55;;;;;;;;;;;;;;;;;;5041077;28;19925;-66
2020/12/04 00:06:22;;;;;;;;;;;;;;;;;;5035445;28;20355;-65
2020/12/04 00:08:48;;;;;;;;;;;;;;;;;;5049311;28;19925;-64
2020/12/04 00:11:15;;;;;;;;;;;;;;;;;;5047181;28;20373;-65
2020/12/04 00:13:41;;;;;;;;;;;;;;;;;;5048058;28;20015;-64
2020/12/04 00:16:08;;;;;;;;;;;;;;;;;;5041660;28;20019;-63
2020/12/04 00:18:34;;;;;;;;;;;;;;;;;;5043109;28;19960;-63
2020/12/04 00:21:01;;;;;;;;;;;;;;;;;;5042358;28;20309;-63
2020/12/04 00:23:27;;;;;;;;;;;;;;;;;;5034994;28;20020;-64
2020/12/04 00:25:54;;;;;;;;;;;;;;;;;;5036458;28;20023;-62
2020/12/04 00:28:20;;;;;;;;;;;;;;;;;;5044082;28;20393;-62
2020/12/04 00:30:47;;;;;;;;;;;;;;;;;;5050755;28;19925;-63
2020/12/04 00:33:13;;;;;;;;;;;;;;;;;;5044249;28;20032;-63
2020/12/04 00:35:39;;;;;;;;;;;;;;;;;;5050119;28;20502;-63
2020/12/04 00:38:06;;;;;;;;;;;;;;;;;;5047748;28;20039;-63
2020/12/04 00:40:32;;;;;;;;;;;;;;;;;;5036689;28;19971;-63
2020/12/04 00:42:59;;;;;;;;;;;;;;;;;;5034767;28;20400;-63
2020/12/04 00:45:25;;;;;;;;;;;;;;;;;;5047418;28;19968;-63
2020/12/04 00:47:52;;;;;;;;;;;;;;;;;;5053663;28;19924;-64
2020/12/04 00:50:18;;;;;;;;;;;;;;;;;;5043539;28;20023;-63
2020/12/04 00:52:45;;;;;;;;;;;;;;;;;;5043371;28;20004;-64
2020/12/04 00:55:11;;;;;;;;;;;;;;;;;;5035813;28;20016;-64
2020/12/04 00:57:38;;;;;;;;;;;;;;;;;;5036853;28;20023;-64
2020/12/04 01:00:04;;;;;;;;;;;;;;;;;;5046394;28;20353;-62
2020/12/04 01:02:31;;;;;;;;;;;;;;;;;;5037027;28;19975;-67
2020/12/04 01:04:57;;;;;;;;;;;;;;;;;;5035679;28;19987;-63
2020/12/04 01:07:24;;;;;;;;;;;;;;;;;;5034336;28;19963;-64
2020/12/04 01:09:50;;;;;;;;;;;;;;;;;;5042026;28;20016;-62
2020/12/04 01:12:17;;;;;;;;;;;;;;;;;;5041347;28;20395;-64
2020/12/04 01:14:43;;;;;;;;;;;;;;;;;;5047482;28;20011;-63
2020/12/04 01:17:09;;;;;;;;;;;;;;;;;;5045425;28;19968;-63
2020/12/04 01:19:36;;;;;;;;;;;;;;;;;;5047976;28;20357;-64
2020/12/04 01:22:02;;;;;;;;;;;;;;;;;;5036031;28;19983;-64
2020/12/04 01:24:29;;;;;;;;;;;;;;;;;;5040679;28;19972;-65
2020/12/04 01:26:55;;;;;;;;;;;;;;;;;;5033670;28;20353;-64
2020/12/04 01:29:22;;;;;;;;;;;;;;;;;;5048182;28;19975;-63
2020/12/04 01:31:48;;;;;;;;;;;;;;;;;;5038083;28;20027;-63
2020/12/04 01:34:15;;;;;;;;;;;;;;;;;;5041920;28;20361;-63
2020/12/04 01:36:41;;;;;;;;;;;;;;;;;;5047514;28;20020;-64
2020/12/04 01:39:08;;;;;;;;;;;;;;;;;;5036381;28;20024;-64
2020/12/04 01:41:34;;;;;;;;;;;;;;;;;;5035964;28;20019;-63
2020/12/04 01:44:01;;;;;;;;;;;;;;;;;;5039540;28;19980;-65
2020/12/04 01:46:27;;;;;;;;;;;;;;;;;;5033388;28;20352;-64
2020/12/04 01:48:54;;;;;;;;;;;;;;;;;;5042413;28;19972;-65
2020/12/04 01:51:20;;;;;;;;;;;;;;;;;;5043306;28;20349;-64
2020/12/04 01:53:47;;;;;;;;;;;;;;;;;;5033298;28;20024;-64
2020/12/04 01:56:13;;;;;;;;;;;;;;;;;;5044391;28;20019;-64
2020/12/04 01:58:40;;;;;;;;;;;;;;;;;;5040397;28;20338;-64
2020/12/04 02:01:06;;;;;;;;;;;;;;;;;;5048829;28;20265;-66
2020/12/04 02:03:33;;;;;;;;;;;;;;;;;;5044417;28;20008;-64
2020/12/04 02:05:59;;;;;;;;;;;;;;;;;;5036733;28;20020;-63
2020/12/04 02:08:26;;;;;;;;;;;;;;;;;;5046097;28;20013;-64
2020/12/04 02:10:52;;;;;;;;;;;;;;;;;;5047960;28;20290;-64
2020/12/04 02:13:19;;;;;;;;;;;;;;;;;;5041913;28;20028;-65
2020/12/04 02:15:45;;;;;;;;;;;;;;;;;;5046000;28;20012;-65
2020/12/04 02:18:12;;;;;;;;;;;;;;;;;;5042004;28;19980;-64
2020/12/04 02:20:38;;;;;;;;;;;;;;;;;;5047379;28;19951;-63
2020/12/04 02:23:05;;;;;;;;;;;;;;;;;;5034517;28;19925;-63
2020/12/04 02:25:31;;;;;;;;;;;;;;;;;;5042944;28;19929;-66
2020/12/04 02:27:58;;;;;;;;;;;;;;;;;;5036698;28;19965;-64
2020/12/04 02:30:24;;;;;;;;;;;;;;;;;;5034472;28;20019;-63
2020/12/04 02:32:50;;;;;;;;;;;;;;;;;;5034854;28;20011;-64
2020/12/04 02:35:17;;;;;;;;;;;;;;;;;;5053270;28;19960;-64
2020/12/04 02:37:43;;;;;;;;;;;;;;;;;;5052837;28;19972;-63
2020/12/04 02:40:10;;;;;;;;;;;;;;;;;;5047415;28;19925;-65
2020/12/04 02:42:36;;;;;;;;;;;;;;;;;;5050694;28;19964;-64
2020/12/04 02:45:03;;;;;;;;;;;;;;;;;;5051171;28;20432;-66
2020/12/04 02:47:29;;;;;;;;;;;;;;;;;;5038768;28;20015;-64
2020/12/04 02:49:56;;;;;;;;;;;;;;;;;;5034143;28;20023;-65
2020/12/04 02:52:22;;;;;;;;;;;;;;;;;;5051519;28;20027;-65
2020/12/04 02:54:49;;;;;;;;;;;;;;;;;;5041539;28;19969;-64
2020/12/04 02:57:15;;;;;;;;;;;;;;;;;;5040654;28;20386;-65
2020/12/04 02:59:42;;;;;;;;;;;;;;;;;;5040058;28;19986;-64
2020/12/04 03:02:08;;;;;;;;;;;;;;;;;;5048050;28;19961;-63
2020/12/04 03:04:35;;;;;;;;;;;;;;;;;;5032550;28;19929;-64
2020/12/04 03:07:01;;;;;;;;;;;;;;;;;;5040721;28;21189;-64
2020/12/04 03:09:27;;;;;;;;;;;;;;;;;;5048743;28;19968;-64
2020/12/04 03:11:54;;;;;;;;;;;;;;;;;;5039778;28;20433;-65
2020/12/04 03:14:20;;;;;;;;;;;;;;;;;;5033643;28;19961;-65
2020/12/04 03:16:47;;;;;;;;;;;;;;;;;;5038782;28;19925;-64
2020/12/04 03:19:13;;;;;;;;;;;;;;;;;;5049853;28;19982;-65
2020/12/04 03:21:40;;;;;;;;;;;;;;;;;;5048540;28;19967;-65
2020/12/04 03:24:06;;;;;;;;;;;;;;;;;;5047352;28;20387;-65
2020/12/04 03:26:33;;;;;;;;;;;;;;;;;;5034773;28;20032;-65
2020/12/04 03:28:59;;;;;;;;;;;;;;;;;;5036426;28;19967;-65
2020/12/04 03:31:26;;;;;;;;;;;;;;;;;;5036301;28;20028;-65
2020/12/04 03:33:52;;;;;;;;;;;;;;;;;;5048381;28;20036;-66
2020/12/04 03:36:19;;;;;;;;;;;;;;;;;;5037411;28;19972;-66
2020/12/04 03:38:45;;;;;;;;;;;;;;;;;;5038863;28;19971;-65
2020/12/04 03:41:12;;;;;;;;;;;;;;;;;;5036844;28;20357;-64
2020/12/04 03:43:40;;;;;;;;;;;;;;;;;;5045726;28;20012;-65
2020/12/04 03:46:06;;;;;;;;;;;;;;;;;;5042154;28;19931;-64
2020/12/04 03:48:33;;;;;;;;;;;;;;;;;;5035880;28;19981;-65
2020/12/04 03:50:59;;;;;;;;;;;;;;;;;;5046942;28;20393;-64
2020/12/04 03:53:26;;;;;;;;;;;;;;;;;;5040490;28;20399;-64
2020/12/04 03:55:52;;;;;;;;;;;;;;;;;;5045213;28;19968;-66
2020/12/04 03:58:19;;;;;;;;;;;;;;;;;;5036532;28;20040;-65
2020/12/04 04:00:45;;;;;;;;;;;;;;;;;;5041896;28;20023;-66
2020/12/04 04:03:12;;;;;;;;;;;;;;;;;;5037441;28;19925;-66
2020/12/04 04:05:38;;;;;;;;;;;;;;;;;;5043710;28;19926;-65
2020/12/04 04:08:05;;;;;;;;;;;;;;;;;;5036052;28;20321;-65
2020/12/04 04:10:31;;;;;;;;;;;;;;;;;;5035789;28;19968;-65
2020/12/04 04:12:58;;;;;;;;;;;;;;;;;;5037552;28;19929;-66
2020/12/04 04:15:24;;;;;;;;;;;;;;;;;;5039437;28;19968;-65
2020/12/04 04:17:51;;;;;;;;;;;;;;;;;;5042885;28;20016;-64
2020/12/04 04:20:17;;;;;;;;;;;;;;;;;;5043807;28;19971;-63
2020/12/04 04:22:43;;;;;;;;;;;;;;;;;;5036287;28;20367;-66
2020/12/04 04:25:12;;;;;;;;;;;;;;;;;;5049466;28;19955;-64
2020/12/04 04:27:39;;;;;;;;;;;;;;;;;;5045097;28;19954;-64
2020/12/04 04:30:05;;;;;;;;;;;;;;;;;;5043934;28;20415;-63
2020/12/04 04:32:32;;;;;;;;;;;;;;;;;;5051699;28;20332;-65
2020/12/04 04:34:58;;;;;;;;;;;;;;;;;;5039366;28;20011;-65
2020/12/04 04:37:24;;;;;;;;;;;;;;;;;;5038623;28;20037;-65
2020/12/04 04:39:51;;;;;;;;;;;;;;;;;;5035391;28;20344;-64
2020/12/04 04:42:17;;;;;;;;;;;;;;;;;;5066284;23;19967;-68
2020/12/04 04:44:44;;;;;;;;;;;;;;;;;;5046960;28;19983;-67
2020/12/04 04:47:11;;;;;;;;;;;;;;;;;;5051710;28;19941;-68
2020/12/04 04:49:37;;;;;;;;;;;;;;;;;;5047065;28;19925;-68
2020/12/04 04:52:04;;;;;;;;;;;;;;;;;;5054059;28;20152;-69
2020/12/04 04:54:30;;;;;;;;;;;;;;;;;;5053016;28;20331;-69
2020/12/04 04:56:57;;;;;;;;;;;;;;;;;;5050135;28;20016;-67
2020/12/04 04:59:23;;;;;;;;;;;;;;;;;;5045267;28;19990;-69
2020/12/04 05:01:49;;;;;;;;;;;;;;;;;;5053326;28;19924;-69
2020/12/04 05:04:16;;;;;;;;;;;;;;;;;;5053788;28;19960;-68
2020/12/04 05:06:42;;;;;;;;;;;;;;;;;;5049524;28;19963;-69
2020/12/04 05:09:09;;;;;;;;;;;;;;;;;;5050485;28;19948;-67
2020/12/04 05:11:35;;;;;;;;;;;;;;;;;;5053387;28;19994;-69
2020/12/04 05:14:02;;;;;;;;;;;;;;;;;;5047350;28;19925;-68
2020/12/04 05:16:29;;;;;;;;;;;;;;;;;;5052857;28;19994;-69
2020/12/04 05:18:55;;;;;;;;;;;;;;;;;;5053016;28;19931;-68
2020/12/04 05:21:21;;;;;;;;;;;;;;;;;;5053772;28;20345;-68
2020/12/04 05:23:48;;;;;;;;;;;;;;;;;;5051929;28;19967;-69
2020/12/04 05:26:14;;;;;;;;;;;;;;;;;;5049604;28;19972;-70
2020/12/04 05:28:41;;;;;;;;;;;;;;;;;;5052191;28;20400;-68
2020/12/04 05:31:07;;;;;;;;;;;;;;;;;;5053466;28;19924;-67
2020/12/04 05:33:34;;;;;;;;;;;;;;;;;;5053153;28;19929;-66
2020/12/04 05:36:00;;;;;;;;;;;;;;;;;;5053526;28;19960;-68
2020/12/04 05:38:27;;;;;;;;;;;;;;;;;;5052703;28;19925;-69
2020/12/04 05:40:53;;;;;;;;;;;;;;;;;;5053088;28;20025;-67
2020/12/04 05:43:20;;;;;;;;;;;;;;;;;;5053881;28;20364;-70
2020/12/04 05:45:46;;;;;;;;;;;;;;;;;;5053897;28;19928;-68
2020/12/04 05:48:13;;;;;;;;;;;;;;;;;;5049089;28;19967;-70
2020/12/04 05:50:39;;;;;;;;;;;;;;;;;;5049616;28;19948;-68
2020/12/04 05:53:06;;;;;;;;;;;;;;;;;;5053601;28;19978;-68
2020/12/04 05:55:32;;;;;;;;;;;;;;;;;;5053509;28;19925;-68
2020/12/04 05:57:59;;;;;;;;;;;;;;;;;;5054192;28;20290;-65
2020/12/04 06:00:25;;;;;;;;;;;;;;;;;;5054792;28;19974;-67
2020/12/04 06:02:52;;;;;;;;;;;;;;;;;;5049756;28;20347;-67
2020/12/04 06:05:18;;;;;;;;;;;;;;;;;;5050710;28;19925;-67
2020/12/04 06:07:44;;;;;;;;;;;;;;;;;;5054411;28;20335;-67
2020/12/04 06:10:11;;;;;;;;;;;;;;;;;;5046645;28;19965;-67
2020/12/04 06:12:37;;;;;;;;;;;;;;;;;;5052698;28;19924;-68
2020/12/04 06:15:04;;;;;;;;;;;;;;;;;;5053342;28;19972;-69
2020/12/04 06:17:30;;;;;;;;;;;;;;;;;;5055805;28;20328;-68
2020/12/04 06:19:57;;;;;;;;;;;;;;;;;;5053365;28;19971;-68
2020/12/04 06:22:25;;;;;;;;;;;;;;;;;;5050040;28;20454;-69
2020/12/04 06:24:52;;;;;;;;;;;;;;;;;;5055649;28;19932;-68
2020/12/04 06:27:18;;;;;;;;;;;;;;;;;;5057522;28;20328;-68
2020/12/04 06:29:45;;;;;;;;;;;;;;;;;;5049860;28;19967;-67
2020/12/04 06:32:11;;;;;;;;;;;;;;;;;;5048862;28;19925;-68
2020/12/04 06:34:38;;;;;;;;;;;;;;;;;;5056128;28;19925;-68
2020/12/04 06:37:04;;;;;;;;;;;;;;;;;;5057257;28;19925;-68
2020/12/04 06:39:31;;;;;;;;;;;;;;;;;;5058138;28;19925;-67
2020/12/04 06:41:57;;;;;;;;;;;;;;;;;;5053364;28;19968;-68
2020/12/04 06:44:24;;;;;;;;;;;;;;;;;;5044783;28;20011;-68
2020/12/04 06:46:50;;;;;;;;;;;;;;;;;;5053532;28;20514;-68
2020/12/04 06:49:23;;;;;;;;;;;;;;;;;;5052139;28;19925;-68
2020/12/04 06:51:49;;;;;;;;;;;;;;;;;;5050364;28;19931;-67
2020/12/04 06:54:16;;;;;;;;;;;;;;;;;;5050292;28;19964;-67
2020/12/04 06:56:42;;;;;;;;;;;;;;;;;;5053843;28;20177;-67
2020/12/04 06:59:09;;;;;;;;;;;;;;;;;;5052785;28;19924;-67
2020/12/04 07:01:35;;;;;;;;;;;;;;;;;;5052661;28;19951;-67
2020/12/04 07:04:02;;;;;;;;;;;;;;;;;;5037315;28;20388;-68
2020/12/04 07:06:28;;;;;;;;;;;;;;;;;;5057476;28;19925;-70
2020/12/04 07:08:55;;;;;;;;;;;;;;;;;;5056256;28;19964;-68
2020/12/04 07:11:21;;;;;;;;;;;;;;;;;;5057321;28;19925;-68
2020/12/04 07:13:48;;;;;;;;;;;;;;;;;;5054997;28;20013;-67
2020/12/04 07:16:14;;;;;;;;;;;;;;;;;;5056172;28;19925;-68
2020/12/04 07:18:41;;;;;;;;;;;;;;;;;;5057609;28;20351;-67
2020/12/04 07:21:07;;;;;;;;;;;;;;;;;;5056577;28;19955;-66
2020/12/04 07:23:34;;;;;;;;;;;;;;;;;;5057688;28;19929;-66
2020/12/04 07:26:00;;;;;;;;;;;;;;;;;;5057615;28;19986;-67
2020/12/04 07:28:27;;;;;;;;;;;;;;;;;;5057323;28;20142;-67
2020/12/04 07:30:53;;;;;;;;;;;;;;;;;;5055464;28;19964;-67
2020/12/04 07:33:20;;;;;;;;;;;;;;;;;;5056180;28;19990;-68
2020/12/04 07:35:46;;;;;;;;;;;;;;;;;;5056178;28;19984;-66
2020/12/04 07:38:13;;;;;;;;;;;;;;;;;;5056648;28;19963;-68
2020/12/04 07:40:40;;;;;;;;;;;;;;;;;;5053962;28;19951;-66
2020/12/04 07:43:07;;;;;;;;;;;;;;;;;;5052653;28;19925;-67
2020/12/04 07:45:33;;;;;;;;;;;;;;;;;;5055667;28;19929;-67
2020/12/04 07:48:00;;;;;;;;;;;;;;;;;;5055654;28;19967;-67
2020/12/04 07:50:26;;;;;;;;;;;;;;;;;;5053255;28;20014;-68
2020/12/04 07:52:53;;;;;;;;;;;;;;;;;;5047713;28;20012;-67
2020/12/04 07:55:19;;;;;;;;;;;;;;;;;;5054870;28;19929;-67
2020/12/04 07:57:46;;;;;;;;;;;;;;;;;;5054854;28;20031;-68
2020/12/04 08:00:12;;;;;;;;;;;;;;;;;;5054414;28;19928;-69
2020/12/04 08:02:38;;;;;;;;;;;;;;;;;;5049169;28;19978;-69
2020/12/04 08:05:05;;;;;;;;;;;;;;;;;;5054073;28;19971;-68
2020/12/04 08:07:32;;;;;;;;;;;;;;;;;;5053578;28;19990;-67
2020/12/04 08:09:59;;;;;;;;;;;;;;;;;;5051997;28;20028;-69
2020/12/04 08:12:25;;;;;;;;;;;;;;;;;;5052993;28;19929;-69
2020/12/04 08:14:53;;;;;;;;;;;;;;;;;;5043388;28;19960;-68
2020/12/04 08:17:19;;;;;;;;;;;;;;;;;;5050982;28;19925;-69
2020/12/04 08:19:46;;;;;;;;;;;;;;;;;;5051100;28;19955;-68
2020/12/04 08:22:12;;;;;;;;;;;;;;;;;;5051271;28;20007;-66
2020/12/04 08:24:39;;;;;;;;;;;;;;;;;;5052318;28;20416;-70
2020/12/04 08:27:06;;;;;;;;;;;;;;;;;;5044275;28;19924;-66
2020/12/04 08:29:32;;;;;;;;;;;;;;;;;;5051482;28;19925;-66
2020/12/04 08:31:59;;;;;;;;;;;;;;;;;;5051322;28;20015;-68
2020/12/04 08:34:25;;;;;;;;;;;;;;;;;;5050344;28;20055;-65
2020/12/04 08:36:52;;;;;;;;;;;;;;;;;;5048758;28;19951;-68
2020/12/04 08:39:19;;;;;;;;;;;;;;;;;;5044871;28;19932;-70
2020/12/04 08:41:45;;;;;;;;;;;;;;;;;;5045587;28;19925;-69
2020/12/04 08:44:12;;;;;;;;;;;;;;;;;;5049384;28;19960;-66
2020/12/04 08:46:38;;;;;;;;;;;;;;;;;;5048521;28;19956;-67
2020/12/04 08:49:05;;;;;;;;;;;;;;;;;;5050968;28;19928;-68
2020/12/04 08:51:31;;;;;;;;;;;;;;;;;;5049298;28;20018;-69
2020/12/04 08:53:58;;;;;;;;;;;;;;;;;;5054539;28;20198;-68
2020/12/04 08:56:24;;;;;;;;;;;;;;;;;;5053676;28;19971;-68
2020/12/04 08:58:51;;;;;;;;;;;;;;;;;;5048953;28;19986;-70
2020/12/04 09:01:20;;;;;;;;;;;;;;;;;;5052748;28;19963;-71
2020/12/04 09:03:46;;;;;;;;;;;;;;;;;;5050184;28;19991;-68
2020/12/04 09:06:13;;;;;;;;;;;;;;;;;;5053224;28;19955;-67
2020/12/04 09:08:39;;;;;;;;;;;;;;;;;;5066488;28;19967;-68
2020/12/04 09:11:06;;;;;;;;;;;;;;;;;;5053280;28;19951;-65
2020/12/04 09:13:32;;;;;;;;;;;;;;;;;;5052375;28;19994;-67
2020/12/04 09:15:59;;;;;;;;;;;;;;;;;;5053899;28;20360;-68
2020/12/04 09:18:30;;;;;;;;;;;;;;;;;;5047649;28;20027;-68
2020/12/04 09:20:57;;;;;;;;;;;;;;;;;;5054047;28;20404;-67
2020/12/04 09:23:23;;;;;;;;;;;;;;;;;;5054538;28;19966;-67
2020/12/04 09:25:50;;;;;;;;;;;;;;;;;;5052480;28;19964;-66
2020/12/04 09:28:16;;;;;;;;;;;;;;;;;;5049078;28;19959;-67
2020/12/04 09:30:43;;;;;;;;;;;;;;;;;;5049623;28;19971;-66
2020/12/04 09:33:09;;;;;;;;;;;;;;;;;;5053328;28;19925;-66
2020/12/04 09:35:37;;;;;;;;;;;;;;;;;;5056344;28;19925;-67
2020/12/04 09:38:03;;;;;;;;;;;;;;;;;;5046250;28;20389;-66
2020/12/04 09:40:30;;;;;;;;;;;;;;;;;;5049055;28;19968;-69
2020/12/04 09:42:56;;;;;;;;;;;;;;;;;;5051494;28;19932;-68
2020/12/04 09:45:23;;;;;;;;;;;;;;;;;;5052022;28;20027;-67
2020/12/04 09:47:49;;;;;;;;;;;;;;;;;;5052105;28;20305;-68
2020/12/04 09:50:16;;;;;;;;;;;;;;;;;;5048005;28;19929;-67
2020/12/04 09:52:42;;;;;;;;;;;;;;;;;;5045972;28;19929;-67
2020/12/04 09:55:09;;;;;;;;;;;;;;;;;;5056522;28;20388;-67
2020/12/04 09:57:35;;;;;;;;;;;;;;;;;;5051904;28;19925;-67
2020/12/04 10:00:02;;;;;;;;;;;;;;;;;;5049846;28;20412;-67
2020/12/04 10:02:29;;;;;;;;;;;;;;;;;;5054056;28;19984;-67
2020/12/04 10:04:56;;;;;;;;;;;;;;;;;;5056955;28;19983;-68
2020/12/04 10:07:22;;;;;;;;;;;;;;;;;;5049691;28;19925;-66
2020/12/04 10:09:49;;;;;;;;;;;;;;;;;;5051793;28;19928;-68
2020/12/04 10:12:16;;;;;;;;;;;;;;;;;;5052279;28;19925;-68
2020/12/04 10:14:42;;;;;;;;;;;;;;;;;;5052441;28;20340;-70
2020/12/04 10:17:09;;;;;;;;;;;;;;;;;;5052123;28;19939;-66
2020/12/04 10:19:35;;;;;;;;;;;;;;;;;;5050699;28;19924;-67
2020/12/04 10:22:02;;;;;;;;;;;;;;;;;;5054952;28;19971;-67
2020/12/04 10:24:28;;;;;;;;;;;;;;;;;;5046127;28;19929;-67
2020/12/04 10:26:58;;;;;;;;;;;;;;;;;;5051381;28;19960;-66
2020/12/04 10:29:25;;;;;;;;;;;;;;;;;;5054953;28;19928;-66
2020/12/04 10:31:51;;;;;;;;;;;;;;;;;;5052429;28;19979;-67
2020/12/04 10:34:18;;;;;;;;;;;;;;;;;;5053790;28;19971;-69
2020/12/04 10:36:45;;;;;;;;;;;;;;;;;;5047524;28;19975;-68
2020/12/04 10:39:11;;;;;;;;;;;;;;;;;;5048359;28;19978;-65
2020/12/04 10:41:38;;;;;;;;;;;;;;;;;;5052283;28;19928;-68
2020/12/04 10:44:04;;;;;;;;;;;;;;;;;;5058147;22;19925;-63
2020/12/04 10:46:31;;;;;;;;;;;;;;;;;;5033387;28;20054;-64
2020/12/04 10:48:58;;;;;;;;;;;;;;;;;;5047049;28;19929;-63
2020/12/04 10:51:24;;;;;;;;;;;;;;;;;;5023311;28;20336;-64
2020/12/04 10:53:51;;;;;;;;;;;;;;;;;;5027526;28;19957;-64
2020/12/04 10:56:18;;;;;;;;;;;;;;;;;;5030196;28;19925;-64
2020/12/04 10:58:44;;;;;;;;;;;;;;;;;;5022950;28;19925;-63
2020/12/04 11:01:11;;;;;;;;;;;;;;;;;;5031812;28;19925;-63
2020/12/04 11:05:24;;;;;;;;;;;;;;;;;;5030548;28;20588;-65
2020/12/04 11:06:25;;;;;;;;;;;;;;;;;;5031159;28;20213;-64
2020/12/04 11:08:52;;;;;;;;;;;;;;;;;;5026738;28;19979;-64
2020/12/04 11:11:20;;;;;;;;;;;;;;;;;;5030727;28;19964;-64
2020/12/04 11:13:46;;;;;;;;;;;;;;;;;;5026259;28;19936;-65
2020/12/04 11:16:13;;;;;;;;;;;;;;;;;;5025482;28;19929;-64
2020/12/04 11:18:40;;;;;;;;;;;;;;;;;;5027063;28;19965;-64
2020/12/04 11:21:06;;;;;;;;;;;;;;;;;;5023098;28;20196;-66
2020/12/04 11:23:33;;;;;;;;;;;;;;;;;;5031598;28;19925;-64
2020/12/04 11:25:59;;;;;;;;;;;;;;;;;;5030802;28;19971;-63
2020/12/04 11:28:26;;;;;;;;;;;;;;;;;;5030972;28;20388;-65
2020/12/04 11:30:52;;;;;;;;;;;;;;;;;;5024456;28;20448;-64
2020/12/04 11:33:19;;;;;;;;;;;;;;;;;;5026542;28;20475;-63
2020/12/04 11:35:45;;;;;;;;;;;;;;;;;;5031142;28;19952;-64
2020/12/04 11:38:14;;;;;;;;;;;;;;;;;;5029949;28;19972;-66
2020/12/04 11:40:40;;;;;;;;;;;;;;;;;;5031988;28;20278;-64
2020/12/04 11:43:07;;;;;;;;;;;;;;;;;;5029184;28;20405;-67
2020/12/04 11:45:33;;;;;;;;;;;;;;;;;;5026189;28;19996;-64
2020/12/04 11:48:00;;;;;;;;;;;;;;;;;;5028626;28;20397;-65
2020/12/04 11:50:26;;;;;;;;;;;;;;;;;;5032455;28;19979;-64
2020/12/04 11:52:53;;;;;;;;;;;;;;;;;;5031009;28;19976;-65
2020/12/04 11:55:19;;;;;;;;;;;;;;;;;;5032345;28;19964;-66
2020/12/04 11:57:46;;;;;;;;;;;;;;;;;;5034228;28;19964;-66
2020/12/04 12:00:12;;;;;;;;;;;;;;;;;;5031735;28;19973;-64
2020/12/04 12:02:39;;;;;;;;;;;;;;;;;;5031424;28;19929;-62
2020/12/04 12:05:06;;;;;;;;;;;;;;;;;;5029987;28;20006;-64
2020/12/04 12:07:32;;;;;;;;;;;;;;;;;;5033059;28;19964;-65
2020/12/04 12:09:59;;;;;;;;;;;;;;;;;;5033703;28;19925;-64
2020/12/04 12:12:25;;;;;;;;;;;;;;;;;;5034929;28;20402;-64
2020/12/04 12:14:52;;;;;;;;;;;;;;;;;;5033431;28;19968;-65
2020/12/04 12:17:18;;;;;;;;;;;;;;;;;;5030086;28;19983;-63
2020/12/04 12:19:45;;;;;;;;;;;;;;;;;;5026944;28;19929;-64
2020/12/04 12:22:12;;;;;;;;;;;;;;;;;;5026168;28;20436;-65
2020/12/04 12:24:39;;;;;;;;;;;;;;;;;;5020499;28;19929;-64
2020/12/04 12:27:05;;;;;;;;;;;;;;;;;;5033218;28;19971;-64
2020/12/04 12:29:32;;;;;;;;;;;;;;;;;;5032107;28;19964;-64
2020/12/04 12:31:58;;;;;;;;;;;;;;;;;;5020925;28;20215;-64
2020/12/04 12:35:00;;;;;;;;;;;;;;;;;;5031844;28;20016;-69
2020/12/04 12:37:12;;;;;;;;;;;;;;;;;;5027425;28;19933;-65
2020/12/04 12:39:39;;;;;;;;;;;;;;;;;;5030168;28;20308;-65
2020/12/04 12:42:07;;;;;;;;;;;;;;;;;;5028286;28;19925;-67
2020/12/04 12:44:33;;;;;;;;;;;;;;;;;;5031570;28;19983;-65
2020/12/04 12:47:00;;;;;;;;;;;;;;;;;;5023261;28;20310;-66
2020/12/04 12:49:26;;;;;;;;;;;;;;;;;;5033430;28;19929;-67
2020/12/04 12:51:53;;;;;;;;;;;;;;;;;;5032277;28;19925;-65
2020/12/04 12:54:19;;;;;;;;;;;;;;;;;;5033214;28;19925;-65
2020/12/04 12:56:46;;;;;;;;;;;;;;;;;;5028427;28;19929;-65
2020/12/04 12:59:12;;;;;;;;;;;;;;;;;;5026739;28;20019;-63
2020/12/04 13:01:39;;;;;;;;;;;;;;;;;;5020668;28;19929;-65
2020/12/04 13:04:05;;;;;;;;;;;;;;;;;;5032411;28;19932;-65
2020/12/04 13:06:32;;;;;;;;;;;;;;;;;;5030373;28;19972;-65
2020/12/04 13:08:58;;;;;;;;;;;;;;;;;;5032845;28;19925;-65
2020/12/04 13:11:25;;;;;;;;;;;;;;;;;;5030814;28;20407;-64
2020/12/04 13:13:51;;;;;;;;;;;;;;;;;;5031881;28;20331;-67
2020/12/04 13:16:18;;;;;;;;;;;;;;;;;;5031818;28;19929;-67
2020/12/04 13:18:44;;;;;;;;;;;;;;;;;;5032599;28;19967;-65
2020/12/04 13:21:11;;;;;;;;;;;;;;;;;;5025733;28;20364;-66
2020/12/04 13:23:37;;;;;;;;;;;;;;;;;;5030705;28;19960;-65
2020/12/04 13:26:04;;;;;;;;;;;;;;;;;;5029434;28;19930;-65
2020/12/04 13:28:31;;;;;;;;;;;;;;;;;;5032150;28;19968;-66
2020/12/04 13:30:58;;;;;;;;;;;;;;;;;;5027750;28;19926;-65
2020/12/04 13:33:25;;;;;;;;;;;;;;;;;;5032752;28;19929;-64
2020/12/04 13:35:51;;;;;;;;;;;;;;;;;;5028470;28;19971;-66
2020/12/04 13:38:18;;;;;;;;;;;;;;;;;;5029250;28;20020;-66
2020/12/04 13:40:44;;;;;;;;;;;;;;;;;;5030446;28;19925;-65
2020/12/04 13:43:11;;;;;;;;;;;;;;;;;;5031490;28;19964;-66
2020/12/04 13:45:37;;;;;;;;;;;;;;;;;;5031184;28;19956;-66
2020/12/04 13:48:04;;;;;;;;;;;;;;;;;;5032717;28;19963;-64
2020/12/04 13:50:30;;;;;;;;;;;;;;;;;;5026570;28;19929;-64
2020/12/04 13:52:57;;;;;;;;;;;;;;;;;;5021104;28;19991;-66
2020/12/04 13:55:24;;;;;;;;;;;;;;;;;;5023805;28;19931;-64
2020/12/04 13:57:50;;;;;;;;;;;;;;;;;;5032501;28;19979;-64
2020/12/04 14:00:17;;;;;;;;;;;;;;;;;;5032398;28;20023;-66
2020/12/04 14:02:43;;;;;;;;;;;;;;;;;;5030010;28;19979;-65
2020/12/04 14:05:10;;;;;;;;;;;;;;;;;;5028829;28;20447;-63
2020/12/04 14:07:36;;;;;;;;;;;;;;;;;;5024531;28;19975;-63
2020/12/04 14:10:03;;;;;;;;;;;;;;;;;;5030393;28;19968;-64
2020/12/04 14:12:29;;;;;;;;;;;;;;;;;;5031298;28;19983;-66
2020/12/04 14:14:55;;;;;;;;;;;;;;;;;;5026103;28;20023;-69
2020/12/04 14:17:22;;;;;;;;;;;;;;;;;;5032366;28;20397;-66
2020/12/04 14:19:48;;;;;;;;;;;;;;;;;;5026857;28;19975;-64
2020/12/04 14:22:15;;;;;;;;;;;;;;;;;;5026212;28;20031;-67
2020/12/04 14:24:41;;;;;;;;;;;;;;;;;;5024225;28;19979;-64
2020/12/04 14:27:08;;;;;;;;;;;;;;;;;;5032427;28;19929;-66
2020/12/04 14:29:34;;;;;;;;;;;;;;;;;;5025770;28;20305;-64
2020/12/04 14:32:01;;;;;;;;;;;;;;;;;;5028430;28;20419;-64
2020/12/04 14:34:28;;;;;;;;;;;;;;;;;;5031102;28;20184;-63
2020/12/04 14:36:54;;;;;;;;;;;;;;;;;;5031910;28;20020;-65
2020/12/04 14:39:21;;;;;;;;;;;;;;;;;;5021710;28;19960;-66
2020/12/04 14:41:49;;;;;;;;;;;;;;;;;;5031867;28;20016;-68
2020/12/04 14:44:16;;;;;;;;;;;;;;;;;;5030033;28;20328;-65
2020/12/04 14:46:42;;;;;;;;;;;;;;;;;;5030281;28;19993;-65
2020/12/04 14:49:09;;;;;;;;;;;;;;;;;;5031151;28;20454;-64
2020/12/04 14:51:35;;;;;;;;;;;;;;;;;;5022342;28;19929;-64
2020/12/04 14:54:02;;;;;;;;;;;;;;;;;;5030892;28;19971;-64
2020/12/04 14:56:28;;;;;;;;;;;;;;;;;;5030761;28;19964;-65
2020/12/04 14:58:55;;;;;;;;;;;;;;;;;;5030419;28;20017;-67
2020/12/04 15:01:22;;;;;;;;;;;;;;;;;;5031225;28;20012;-64
2020/12/04 15:03:49;;;;;;;;;;;;;;;;;;5030823;28;20371;-63
2020/12/04 15:06:15;;;;;;;;;;;;;;;;;;5030984;28;19974;-63
2020/12/04 15:08:42;;;;;;;;;;;;;;;;;;5030041;28;19929;-64
2020/12/04 15:11:08;;;;;;;;;;;;;;;;;;5031442;28;19968;-65
2020/12/04 15:13:35;;;;;;;;;;;;;;;;;;5030082;28;19968;-64
2020/12/04 15:16:04;;;;;;;;;;;;;;;;;;5027067;28;20027;-64
2020/12/04 15:18:30;;;;;;;;;;;;;;;;;;5029670;28;19925;-65
2020/12/04 15:20:57;;;;;;;;;;;;;;;;;;5031000;28;19925;-65
2020/12/04 15:23:23;;;;;;;;;;;;;;;;;;5018686;28;19930;-63
2020/12/04 15:25:50;;;;;;;;;;;;;;;;;;5033350;28;19971;-64
2020/12/04 15:28:16;;;;;;;;;;;;;;;;;;5022239;28;19964;-65
2020/12/04 15:30:43;;;;;;;;;;;;;;;;;;5033555;28;19983;-63
2020/12/04 15:33:09;;;;;;;;;;;;;;;;;;5035209;28;20020;-65
2020/12/04 15:35:36;;;;;;;;;;;;;;;;;;5030747;28;19971;-67
2020/12/04 15:38:03;;;;;;;;;;;;;;;;;;5034801;28;19925;-64
2020/12/04 15:40:31;;;;;;;;;;;;;;;;;;5025823;28;19925;-63
2020/12/04 15:42:57;;;;;;;;;;;;;;;;;;5031452;28;20020;-65
2020/12/04 15:45:24;;;;;;;;;;;;;;;;;;5032504;28;19979;-65
2020/12/04 15:47:50;;;;;;;;;;;;;;;;;;5030794;28;19980;-66
2020/12/04 15:50:17;;;;;;;;;;;;;;;;;;5026315;28;19976;-66
2020/12/04 15:52:44;;;;;;;;;;;;;;;;;;5033764;28;19987;-66
2020/12/04 15:55:10;;;;;;;;;;;;;;;;;;5034356;28;19925;-65
2020/12/04 15:57:37;;;;;;;;;;;;;;;;;;5034982;28;19967;-62
2020/12/04 16:00:03;;;;;;;;;;;;;;;;;;5030249;28;19933;-64
2020/12/04 16:02:30;;;;;;;;;;;;;;;;;;5034408;28;19971;-66
2020/12/04 16:04:56;;;;;;;;;;;;;;;;;;5028794;28;19929;-66
2020/12/04 16:07:23;;;;;;;;;;;;;;;;;;5034172;28;19925;-65
2020/12/04 16:09:49;;;;;;;;;;;;;;;;;;5020727;28;19963;-64
2020/12/04 16:12:16;;;;;;;;;;;;;;;;;;5032511;28;20016;-65
2020/12/04 16:14:42;;;;;;;;;;;;;;;;;;5034189;28;19925;-64
2020/12/04 16:17:09;;;;;;;;;;;;;;;;;;5032955;28;19929;-62
2020/12/04 16:19:35;;;;;;;;;;;;;;;;;;5030530;28;19948;-65
2020/12/04 16:22:02;;;;;;;;;;;;;;;;;;5033795;28;19964;-64
2020/12/04 16:24:28;;;;;;;;;;;;;;;;;;5021802;28;19925;-64
2020/12/04 16:26:55;;;;;;;;;;;;;;;;;;5033128;28;19968;-64
2020/12/04 16:29:22;;;;;;;;;;;;;;;;;;5028803;28;19925;-64
2020/12/04 16:31:49;;;;;;;;;;;;;;;;;;5033700;28;20267;-64
2020/12/04 16:34:16;;;;;;;;;;;;;;;;;;5033271;28;20025;-65
2020/12/04 16:36:42;;;;;;;;;;;;;;;;;;5032123;28;19932;-65
2020/12/04 16:39:09;;;;;;;;;;;;;;;;;;5032910;28;19926;-65
2020/12/04 16:41:35;;;;;;;;;;;;;;;;;;5033354;28;20035;-64